General Aviation Weather

Text Reports

Enter one or more of the following location identifiers separated by a space:

Zip Code, Four-Character ICAO or Three-Character IATA airport codes.

METAR - Aviation Routine Weather Report
LLET - Eilat,
Updated at 8:50 AM GMT on September 23, 2014 (11:50 AM IDT):
METAR LLET 230850Z 05017KT CAVOK 33/18 Q1012
TAF - Terminal Area Forecast
LLET - Eilat,
Updated at 8:50 AM GMT on September 23, 2014 (11:50 AM IDT):
TAF LLET 230510Z 2306/2406 03012KT CAVOK
      BECMG 2307/2309 04018KT
      BECMG 2319/2322 02010KT TX38/2313Z TN25/2403Z=
Decoded:
ID: LLET   Elat/J. Hozman, IS
REPORT TIME: 23  5:10
VALID TIME: 23 September AT 06:00Z to 24 September AT 06:00Z.
INITIAL WX
   WINDS: 30 AT 12
   WEATHER: CAVOK
WX BECOMING FROM 07Z TO 09Z
   WINDS: 40 AT 18
WX BECOMING FROM 19Z TO 22Z
   WINDS: 20 AT 10
   COMMENTS: TX38/2313Z TN25/2403Z= 

CORRECTION
INITIAL WX
   WEATHER: MPTO
   COMMENTS: 230500Z 2306/2406 00000KT 9999 SCT016 SCT090 
TEMPORARY WX FROM 08Z TO 12Z
   VISIBILITY: 5.0 MILES
   WEATHER: RA_PROB
   COMMENTS: 30 
TEMPORARY WX FROM 19Z TO 23Z
   WINDS: 180 AT 6
   VISIBILITY: 3.7 MILES
   WEATHER: TSRA
   CLOUDS: 15 SCT WITH CB
   CLOUDS: 80 BKN
   COMMENTS: = 

PIREP - Pilot Weather Report
LLET - Eilat,
Updated at 8:50 AM GMT on September 23, 2014 (11:50 AM IDT):
No PIREP is currently available for this location.
AIRMET - Airmens Meteorological Information
LLET - Eilat,
Updated at 8:50 AM GMT on September 23, 2014 (11:50 AM IDT):
No AIRMET is currently available for this location.
SIGMET - Significant Meteorological Information
LLET - Eilat,
Updated at 8:50 AM GMT on September 23, 2014 (11:50 AM IDT):
No SIGMET is currently available for this location.
NOTAM - Notice to Airmen
LLET - Eilat,
Updated at 8:50 AM GMT on September 23, 2014 (11:50 AM IDT):
No NOTAM is currently available for this location.
Forecast Area
LLET - Eilat,
Updated at 8:50 AM GMT on September 23, 2014 (11:50 AM IDT):
No NOTAM is currently available for this location.
Aviation Weather Maps